sensor_id;sensor_type;location;lat;lon;timestamp;P1;durP1;ratioP1;P2;durP2;ratioP2
62880;SDS011;48969;49.934;8.596;2023-07-28T00:01:32;4.97;;;4.32;;
62880;SDS011;48969;49.934;8.596;2023-07-28T00:03:58;9.98;;;5.72;;
62880;SDS011;48969;49.934;8.596;2023-07-28T00:06:23;5.88;;;4.38;;
62880;SDS011;48969;49.934;8.596;2023-07-28T00:08:49;5.18;;;4.20;;
62880;SDS011;48969;49.934;8.596;2023-07-28T00:11:14;6.32;;;4.60;;
62880;SDS011;48969;49.934;8.596;2023-07-28T00:13:40;6.50;;;4.50;;
62880;SDS011;48969;49.934;8.596;2023-07-28T00:16:06;6.25;;;4.05;;
62880;SDS011;48969;49.934;8.596;2023-07-28T00:18:32;5.90;;;4.47;;
62880;SDS011;48969;49.934;8.596;2023-07-28T00:20:57;5.95;;;4.43;;
62880;SDS011;48969;49.934;8.596;2023-07-28T00:23:23;5.60;;;4.10;;
62880;SDS011;48969;49.934;8.596;2023-07-28T00:25:49;5.45;;;4.05;;
62880;SDS011;48969;49.934;8.596;2023-07-28T00:28:14;6.32;;;4.68;;
62880;SDS011;48969;49.934;8.596;2023-07-28T00:30:39;6.00;;;4.63;;
62880;SDS011;48969;49.934;8.596;2023-07-28T00:33:05;4.85;;;4.35;;
62880;SDS011;48969;49.934;8.596;2023-07-28T00:35:30;4.97;;;4.10;;
62880;SDS011;48969;49.934;8.596;2023-07-28T00:37:56;5.05;;;3.90;;
62880;SDS011;48969;49.934;8.596;2023-07-28T00:40:21;5.55;;;4.22;;
62880;SDS011;48969;49.934;8.596;2023-07-28T00:42:47;6.57;;;4.43;;
62880;SDS011;48969;49.934;8.596;2023-07-28T00:45:13;5.45;;;4.10;;
62880;SDS011;48969;49.934;8.596;2023-07-28T00:47:38;6.47;;;4.15;;
62880;SDS011;48969;49.934;8.596;2023-07-28T00:50:05;7.15;;;4.07;;
62880;SDS011;48969;49.934;8.596;2023-07-28T00:52:31;6.85;;;4.20;;
62880;SDS011;48969;49.934;8.596;2023-07-28T00:54:57;6.60;;;4.60;;
62880;SDS011;48969;49.934;8.596;2023-07-28T00:57:22;5.00;;;4.28;;
62880;SDS011;48969;49.934;8.596;2023-07-28T00:59:47;5.47;;;4.18;;
62880;SDS011;48969;49.934;8.596;2023-07-28T01:02:13;6.13;;;4.28;;
62880;SDS011;48969;49.934;8.596;2023-07-28T01:04:38;6.32;;;4.53;;
62880;SDS011;48969;49.934;8.596;2023-07-28T01:07:14;6.28;;;4.90;;
62880;SDS011;48969;49.934;8.596;2023-07-28T01:09:46;5.60;;;4.10;;
62880;SDS011;48969;49.934;8.596;2023-07-28T01:12:23;7.40;;;4.72;;
62880;SDS011;48969;49.934;8.596;2023-07-28T01:14:49;6.47;;;4.57;;
62880;SDS011;48969;49.934;8.596;2023-07-28T01:17:14;6.30;;;5.05;;
62880;SDS011;48969;49.934;8.596;2023-07-28T01:19:40;5.43;;;4.68;;
62880;SDS011;48969;49.934;8.596;2023-07-28T01:22:11;6.38;;;4.55;;
62880;SDS011;48969;49.934;8.596;2023-07-28T01:27:38;5.78;;;4.30;;
62880;SDS011;48969;49.934;8.596;2023-07-28T01:30:07;6.18;;;4.38;;
62880;SDS011;48969;49.934;8.596;2023-07-28T01:32:34;6.65;;;4.28;;
62880;SDS011;48969;49.934;8.596;2023-07-28T01:35:01;6.32;;;4.35;;
62880;SDS011;48969;49.934;8.596;2023-07-28T01:37:29;6.47;;;4.53;;
62880;SDS011;48969;49.934;8.596;2023-07-28T01:39:55;7.35;;;4.53;;
62880;SDS011;48969;49.934;8.596;2023-07-28T01:42:22;6.15;;;4.68;;
62880;SDS011;48969;49.934;8.596;2023-07-28T01:44:47;5.93;;;4.60;;
62880;SDS011;48969;49.934;8.596;2023-07-28T01:47:12;5.70;;;4.93;;
62880;SDS011;48969;49.934;8.596;2023-07-28T01:49:38;5.55;;;4.47;;
62880;SDS011;48969;49.934;8.596;2023-07-28T01:52:03;5.25;;;4.20;;
62880;SDS011;48969;49.934;8.596;2023-07-28T01:54:29;6.55;;;4.90;;
62880;SDS011;48969;49.934;8.596;2023-07-28T01:56:54;5.95;;;4.55;;
62880;SDS011;48969;49.934;8.596;2023-07-28T01:59:19;4.93;;;4.30;;
62880;SDS011;48969;49.934;8.596;2023-07-28T02:01:45;5.00;;;4.10;;
62880;SDS011;48969;49.934;8.596;2023-07-28T02:04:10;5.57;;;4.30;;
62880;SDS011;48969;49.934;8.596;2023-07-28T02:06:36;5.63;;;3.95;;
62880;SDS011;48969;49.934;8.596;2023-07-28T02:09:01;6.00;;;4.57;;
62880;SDS011;48969;49.934;8.596;2023-07-28T02:11:26;6.82;;;4.80;;
62880;SDS011;48969;49.934;8.596;2023-07-28T02:13:52;5.57;;;4.20;;
62880;SDS011;48969;49.934;8.596;2023-07-28T02:16:17;5.63;;;4.32;;
62880;SDS011;48969;49.934;8.596;2023-07-28T02:18:42;5.20;;;4.50;;
62880;SDS011;48969;49.934;8.596;2023-07-28T02:21:08;5.35;;;4.45;;
62880;SDS011;48969;49.934;8.596;2023-07-28T02:23:33;6.05;;;4.50;;
62880;SDS011;48969;49.934;8.596;2023-07-28T02:25:59;5.22;;;4.20;;
62880;SDS011;48969;49.934;8.596;2023-07-28T02:28:24;6.32;;;4.60;;
62880;SDS011;48969;49.934;8.596;2023-07-28T02:30:49;6.25;;;4.70;;
62880;SDS011;48969;49.934;8.596;2023-07-28T02:33:14;6.65;;;4.72;;
62880;SDS011;48969;49.934;8.596;2023-07-28T02:35:40;5.32;;;4.32;;
62880;SDS011;48969;49.934;8.596;2023-07-28T02:38:05;6.35;;;4.57;;
62880;SDS011;48969;49.934;8.596;2023-07-28T02:40:31;5.93;;;4.32;;
62880;SDS011;48969;49.934;8.596;2023-07-28T02:42:57;5.75;;;4.22;;
62880;SDS011;48969;49.934;8.596;2023-07-28T02:45:23;4.97;;;4.10;;
62880;SDS011;48969;49.934;8.596;2023-07-28T02:47:50;5.13;;;4.45;;
62880;SDS011;48969;49.934;8.596;2023-07-28T02:50:15;6.40;;;4.30;;
62880;SDS011;48969;49.934;8.596;2023-07-28T02:52:40;5.15;;;4.13;;
62880;SDS011;48969;49.934;8.596;2023-07-28T02:55:06;5.63;;;4.20;;
62880;SDS011;48969;49.934;8.596;2023-07-28T02:57:31;6.30;;;4.22;;
62880;SDS011;48969;49.934;8.596;2023-07-28T02:59:56;5.55;;;4.40;;
62880;SDS011;48969;49.934;8.596;2023-07-28T03:02:22;5.43;;;4.00;;
62880;SDS011;48969;49.934;8.596;2023-07-28T03:04:47;5.53;;;3.80;;
62880;SDS011;48969;49.934;8.596;2023-07-28T03:07:12;4.78;;;3.83;;
62880;SDS011;48969;49.934;8.596;2023-07-28T03:09:37;4.55;;;4.00;;
62880;SDS011;48969;49.934;8.596;2023-07-28T03:12:03;5.05;;;4.05;;
62880;SDS011;48969;49.934;8.596;2023-07-28T03:14:30;6.18;;;4.22;;
62880;SDS011;48969;49.934;8.596;2023-07-28T03:16:56;5.13;;;3.72;;
62880;SDS011;48969;49.934;8.596;2023-07-28T03:19:22;5.38;;;4.03;;
62880;SDS011;48969;49.934;8.596;2023-07-28T03:21:47;5.40;;;4.32;;
62880;SDS011;48969;49.934;8.596;2023-07-28T03:24:12;7.78;;;4.45;;
62880;SDS011;48969;49.934;8.596;2023-07-28T03:26:38;5.70;;;4.07;;
62880;SDS011;48969;49.934;8.596;2023-07-28T03:29:03;5.72;;;3.97;;
62880;SDS011;48969;49.934;8.596;2023-07-28T03:31:28;5.30;;;4.13;;
62880;SDS011;48969;49.934;8.596;2023-07-28T03:33:53;6.80;;;4.47;;
62880;SDS011;48969;49.934;8.596;2023-07-28T03:36:19;7.78;;;4.80;;
62880;SDS011;48969;49.934;8.596;2023-07-28T03:38:44;7.43;;;4.85;;
62880;SDS011;48969;49.934;8.596;2023-07-28T03:41:09;5.43;;;4.13;;
62880;SDS011;48969;49.934;8.596;2023-07-28T03:43:35;6.80;;;5.07;;
62880;SDS011;48969;49.934;8.596;2023-07-28T03:46:00;6.28;;;4.60;;
62880;SDS011;48969;49.934;8.596;2023-07-28T03:48:25;6.80;;;4.20;;
62880;SDS011;48969;49.934;8.596;2023-07-28T03:50:51;5.38;;;4.55;;
62880;SDS011;48969;49.934;8.596;2023-07-28T03:53:16;6.75;;;4.80;;
62880;SDS011;48969;49.934;8.596;2023-07-28T03:55:41;5.57;;;4.30;;
62880;SDS011;48969;49.934;8.596;2023-07-28T03:58:06;5.60;;;3.92;;
62880;SDS011;48969;49.934;8.596;2023-07-28T04:00:32;6.00;;;4.50;;
62880;SDS011;48969;49.934;8.596;2023-07-28T04:02:58;5.32;;;4.15;;
62880;SDS011;48969;49.934;8.596;2023-07-28T04:05:23;5.63;;;4.30;;
62880;SDS011;48969;49.934;8.596;2023-07-28T04:07:49;5.10;;;4.10;;
62880;SDS011;48969;49.934;8.596;2023-07-28T04:10:14;5.65;;;4.03;;
62880;SDS011;48969;49.934;8.596;2023-07-28T04:12:39;5.90;;;4.03;;
62880;SDS011;48969;49.934;8.596;2023-07-28T04:15:04;5.20;;;4.20;;
62880;SDS011;48969;49.934;8.596;2023-07-28T04:17:30;5.80;;;4.32;;
62880;SDS011;48969;49.934;8.596;2023-07-28T04:19:55;4.47;;;3.88;;
62880;SDS011;48969;49.934;8.596;2023-07-28T04:22:21;6.05;;;3.88;;
62880;SDS011;48969;49.934;8.596;2023-07-28T04:24:46;5.50;;;3.88;;
62880;SDS011;48969;49.934;8.596;2023-07-28T04:27:12;5.22;;;3.60;;
62880;SDS011;48969;49.934;8.596;2023-07-28T04:29:38;6.10;;;3.90;;
62880;SDS011;48969;49.934;8.596;2023-07-28T04:32:03;4.85;;;3.58;;
62880;SDS011;48969;49.934;8.596;2023-07-28T04:34:29;5.75;;;3.47;;
62880;SDS011;48969;49.934;8.596;2023-07-28T04:36:54;5.45;;;3.70;;
62880;SDS011;48969;49.934;8.596;2023-07-28T04:39:19;5.57;;;3.83;;
62880;SDS011;48969;49.934;8.596;2023-07-28T04:41:45;4.57;;;3.47;;
62880;SDS011;48969;49.934;8.596;2023-07-28T04:44:10;4.25;;;3.42;;
62880;SDS011;48969;49.934;8.596;2023-07-28T04:46:35;4.75;;;3.60;;
62880;SDS011;48969;49.934;8.596;2023-07-28T04:49:01;6.28;;;3.75;;
62880;SDS011;48969;49.934;8.596;2023-07-28T04:51:27;5.38;;;3.65;;
62880;SDS011;48969;49.934;8.596;2023-07-28T04:53:53;5.25;;;3.97;;
62880;SDS011;48969;49.934;8.596;2023-07-28T04:56:18;6.85;;;4.18;;
62880;SDS011;48969;49.934;8.596;2023-07-28T04:58:43;4.90;;;4.05;;
62880;SDS011;48969;49.934;8.596;2023-07-28T05:01:08;5.18;;;3.80;;
62880;SDS011;48969;49.934;8.596;2023-07-28T05:03:34;5.18;;;3.90;;
62880;SDS011;48969;49.934;8.596;2023-07-28T05:05:59;5.35;;;4.15;;
62880;SDS011;48969;49.934;8.596;2023-07-28T05:08:24;4.68;;;3.92;;
62880;SDS011;48969;49.934;8.596;2023-07-28T05:10:50;4.63;;;3.50;;
62880;SDS011;48969;49.934;8.596;2023-07-28T05:13:15;4.88;;;3.85;;
62880;SDS011;48969;49.934;8.596;2023-07-28T05:15:40;5.55;;;4.10;;
62880;SDS011;48969;49.934;8.596;2023-07-28T05:18:06;5.47;;;3.65;;
62880;SDS011;48969;49.934;8.596;2023-07-28T05:20:31;5.80;;;4.20;;
62880;SDS011;48969;49.934;8.596;2023-07-28T05:22:56;5.50;;;4.32;;
62880;SDS011;48969;49.934;8.596;2023-07-28T05:25:22;4.35;;;3.78;;
62880;SDS011;48969;49.934;8.596;2023-07-28T05:27:47;4.68;;;3.88;;
62880;SDS011;48969;49.934;8.596;2023-07-28T05:30:12;6.45;;;3.65;;
62880;SDS011;48969;49.934;8.596;2023-07-28T05:32:38;6.10;;;3.88;;
62880;SDS011;48969;49.934;8.596;2023-07-28T05:35:04;5.55;;;3.35;;
62880;SDS011;48969;49.934;8.596;2023-07-28T05:37:29;4.43;;;3.72;;
62880;SDS011;48969;49.934;8.596;2023-07-28T05:39:55;4.25;;;3.67;;
62880;SDS011;48969;49.934;8.596;2023-07-28T05:42:20;4.60;;;3.53;;
62880;SDS011;48969;49.934;8.596;2023-07-28T05:44:45;4.57;;;3.22;;
62880;SDS011;48969;49.934;8.596;2023-07-28T05:47:10;4.15;;;3.60;;
62880;SDS011;48969;49.934;8.596;2023-07-28T05:49:36;4.78;;;3.80;;
62880;SDS011;48969;49.934;8.596;2023-07-28T05:52:01;3.85;;;3.40;;
62880;SDS011;48969;49.934;8.596;2023-07-28T05:54:26;4.68;;;3.47;;
62880;SDS011;48969;49.934;8.596;2023-07-28T05:56:52;4.10;;;3.28;;
62880;SDS011;48969;49.934;8.596;2023-07-28T05:59:17;4.85;;;3.67;;
62880;SDS011;48969;49.934;8.596;2023-07-28T06:01:42;4.30;;;3.50;;
62880;SDS011;48969;49.934;8.596;2023-07-28T06:04:07;3.80;;;3.40;;
62880;SDS011;48969;49.934;8.596;2023-07-28T06:06:33;4.15;;;3.55;;
62880;SDS011;48969;49.934;8.596;2023-07-28T06:08:58;4.25;;;3.45;;
62880;SDS011;48969;49.934;8.596;2023-07-28T06:11:23;4.07;;;3.22;;
62880;SDS011;48969;49.934;8.596;2023-07-28T06:13:48;3.90;;;3.35;;
62880;SDS011;48969;49.934;8.596;2023-07-28T06:16:14;3.95;;;3.50;;
62880;SDS011;48969;49.934;8.596;2023-07-28T06:18:40;3.97;;;3.30;;
62880;SDS011;48969;49.934;8.596;2023-07-28T06:21:05;4.85;;;3.20;;
62880;SDS011;48969;49.934;8.596;2023-07-28T06:23:30;5.65;;;3.45;;
62880;SDS011;48969;49.934;8.596;2023-07-28T06:25:56;4.22;;;2.90;;
62880;SDS011;48969;49.934;8.596;2023-07-28T06:28:21;3.42;;;3.10;;
62880;SDS011;48969;49.934;8.596;2023-07-28T06:30:46;3.30;;;2.90;;
62880;SDS011;48969;49.934;8.596;2023-07-28T06:33:12;3.03;;;2.72;;
62880;SDS011;48969;49.934;8.596;2023-07-28T06:35:37;3.80;;;2.90;;
62880;SDS011;48969;49.934;8.596;2023-07-28T06:38:02;3.60;;;2.50;;
62880;SDS011;48969;49.934;8.596;2023-07-28T06:40:28;3.10;;;2.70;;
62880;SDS011;48969;49.934;8.596;2023-07-28T06:42:53;2.58;;;2.38;;
62880;SDS011;48969;49.934;8.596;2023-07-28T06:45:19;3.67;;;2.70;;
62880;SDS011;48969;49.934;8.596;2023-07-28T06:47:44;2.03;;;1.83;;
62880;SDS011;48969;49.934;8.596;2023-07-28T06:50:10;3.67;;;2.50;;
62880;SDS011;48969;49.934;8.596;2023-07-28T06:52:36;2.38;;;1.98;;
62880;SDS011;48969;49.934;8.596;2023-07-28T06:55:02;2.88;;;2.45;;
62880;SDS011;48969;49.934;8.596;2023-07-28T06:57:27;4.32;;;2.35;;
62880;SDS011;48969;49.934;8.596;2023-07-28T06:59:53;3.30;;;2.40;;
62880;SDS011;48969;49.934;8.596;2023-07-28T07:02:18;3.08;;;2.22;;
62880;SDS011;48969;49.934;8.596;2023-07-28T07:04:43;2.38;;;2.10;;
62880;SDS011;48969;49.934;8.596;2023-07-28T07:07:09;2.72;;;2.30;;
62880;SDS011;48969;49.934;8.596;2023-07-28T07:09:34;2.97;;;2.25;;
62880;SDS011;48969;49.934;8.596;2023-07-28T07:11:59;2.05;;;1.85;;
62880;SDS011;48969;49.934;8.596;2023-07-28T07:14:25;4.45;;;2.25;;
62880;SDS011;48969;49.934;8.596;2023-07-28T07:16:50;2.40;;;2.20;;
62880;SDS011;48969;49.934;8.596;2023-07-28T07:19:16;2.47;;;2.28;;
62880;SDS011;48969;49.934;8.596;2023-07-28T07:21:41;3.13;;;2.28;;
62880;SDS011;48969;49.934;8.596;2023-07-28T07:24:07;2.35;;;2.08;;
62880;SDS011;48969;49.934;8.596;2023-07-28T07:26:32;2.50;;;1.80;;
62880;SDS011;48969;49.934;8.596;2023-07-28T07:28:58;1.70;;;1.60;;
62880;SDS011;48969;49.934;8.596;2023-07-28T07:31:23;2.28;;;1.58;;
62880;SDS011;48969;49.934;8.596;2023-07-28T07:33:49;2.00;;;1.70;;
62880;SDS011;48969;49.934;8.596;2023-07-28T07:36:15;1.70;;;1.60;;
62880;SDS011;48969;49.934;8.596;2023-07-28T07:38:42;1.63;;;1.52;;
62880;SDS011;48969;49.934;8.596;2023-07-28T07:41:10;1.48;;;1.38;;
62880;SDS011;48969;49.934;8.596;2023-07-28T07:43:36;2.25;;;1.30;;
62880;SDS011;48969;49.934;8.596;2023-07-28T07:46:01;1.08;;;1.00;;
62880;SDS011;48969;49.934;8.596;2023-07-28T07:48:27;1.20;;;1.10;;
62880;SDS011;48969;49.934;8.596;2023-07-28T07:50:52;1.13;;;1.10;;
62880;SDS011;48969;49.934;8.596;2023-07-28T07:53:17;1.30;;;1.20;;
62880;SDS011;48969;49.934;8.596;2023-07-28T07:55:42;1.48;;;1.30;;
62880;SDS011;48969;49.934;8.596;2023-07-28T07:58:08;1.38;;;1.27;;
62880;SDS011;48969;49.934;8.596;2023-07-28T08:00:33;3.15;;;1.75;;
62880;SDS011;48969;49.934;8.596;2023-07-28T08:02:59;1.40;;;1.30;;
62880;SDS011;48969;49.934;8.596;2023-07-28T08:05:24;1.60;;;1.42;;
62880;SDS011;48969;49.934;8.596;2023-07-28T08:07:49;3.30;;;1.58;;
62880;SDS011;48969;49.934;8.596;2023-07-28T08:10:15;1.80;;;1.70;;
62880;SDS011;48969;49.934;8.596;2023-07-28T08:12:42;2.33;;;1.60;;
62880;SDS011;48969;49.934;8.596;2023-07-28T08:15:09;2.10;;;1.70;;
62880;SDS011;48969;49.934;8.596;2023-07-28T08:17:35;2.00;;;1.80;;
62880;SDS011;48969;49.934;8.596;2023-07-28T08:20:00;1.90;;;1.70;;
62880;SDS011;48969;49.934;8.596;2023-07-28T08:22:25;1.80;;;1.42;;
62880;SDS011;48969;49.934;8.596;2023-07-28T08:24:51;1.50;;;1.40;;
62880;SDS011;48969;49.934;8.596;2023-07-28T08:27:16;1.60;;;1.50;;
62880;SDS011;48969;49.934;8.596;2023-07-28T08:29:41;2.38;;;1.80;;
62880;SDS011;48969;49.934;8.596;2023-07-28T08:32:07;1.92;;;1.70;;
62880;SDS011;48969;49.934;8.596;2023-07-28T08:34:32;1.80;;;1.70;;
62880;SDS011;48969;49.934;8.596;2023-07-28T08:36:58;2.03;;;1.50;;
62880;SDS011;48969;49.934;8.596;2023-07-28T08:39:23;2.03;;;1.30;;
62880;SDS011;48969;49.934;8.596;2023-07-28T08:41:56;1.25;;;1.15;;
62880;SDS011;48969;49.934;8.596;2023-07-28T08:44:22;0.63;;;0.63;;
62880;SDS011;48969;49.934;8.596;2023-07-28T08:46:48;1.00;;;1.00;;
62880;SDS011;48969;49.934;8.596;2023-07-28T08:49:13;1.77;;;0.80;;
62880;SDS011;48969;49.934;8.596;2023-07-28T08:51:40;0.82;;;0.82;;
62880;SDS011;48969;49.934;8.596;2023-07-28T08:54:07;0.77;;;0.77;;
62880;SDS011;48969;49.934;8.596;2023-07-28T08:56:32;1.05;;;0.80;;
62880;SDS011;48969;49.934;8.596;2023-07-28T08:58:58;0.70;;;0.63;;
62880;SDS011;48969;49.934;8.596;2023-07-28T09:01:24;0.80;;;0.80;;
62880;SDS011;48969;49.934;8.596;2023-07-28T09:03:50;1.17;;;0.93;;
62880;SDS011;48969;49.934;8.596;2023-07-28T09:06:15;0.77;;;0.77;;
62880;SDS011;48969;49.934;8.596;2023-07-28T09:08:40;1.15;;;1.05;;
62880;SDS011;48969;49.934;8.596;2023-07-28T09:11:08;1.27;;;1.17;;
62880;SDS011;48969;49.934;8.596;2023-07-28T09:13:38;1.80;;;1.40;;
62880;SDS011;48969;49.934;8.596;2023-07-28T09:16:12;1.67;;;1.58;;
62880;SDS011;48969;49.934;8.596;2023-07-28T09:18:45;1.27;;;1.17;;
62880;SDS011;48969;49.934;8.596;2023-07-28T09:21:17;1.00;;;0.85;;
62880;SDS011;48969;49.934;8.596;2023-07-28T09:23:49;2.50;;;1.27;;
62880;SDS011;48969;49.934;8.596;2023-07-28T09:26:15;0.80;;;0.80;;
62880;SDS011;48969;49.934;8.596;2023-07-28T09:28:41;1.40;;;0.90;;
62880;SDS011;48969;49.934;8.596;2023-07-28T09:31:07;2.20;;;1.00;;
62880;SDS011;48969;49.934;8.596;2023-07-28T09:33:33;0.80;;;0.80;;
62880;SDS011;48969;49.934;8.596;2023-07-28T09:36:10;0.90;;;0.90;;
62880;SDS011;48969;49.934;8.596;2023-07-28T09:38:38;1.15;;;1.05;;
62880;SDS011;48969;49.934;8.596;2023-07-28T09:41:08;1.15;;;1.08;;
62880;SDS011;48969;49.934;8.596;2023-07-28T09:43:38;1.13;;;1.13;;
62880;SDS011;48969;49.934;8.596;2023-07-28T09:46:06;1.50;;;1.40;;
62880;SDS011;48969;49.934;8.596;2023-07-28T09:48:33;1.55;;;1.35;;
62880;SDS011;48969;49.934;8.596;2023-07-28T09:51:11;1.20;;;1.10;;
62880;SDS011;48969;49.934;8.596;2023-07-28T09:53:40;1.25;;;1.10;;
62880;SDS011;48969;49.934;8.596;2023-07-28T09:56:16;1.08;;;0.98;;
62880;SDS011;48969;49.934;8.596;2023-07-28T09:58:48;1.73;;;1.15;;
62880;SDS011;48969;49.934;8.596;2023-07-28T10:01:15;0.80;;;0.80;;
62880;SDS011;48969;49.934;8.596;2023-07-28T10:03:41;0.70;;;0.70;;
62880;SDS011;48969;49.934;8.596;2023-07-28T10:06:06;0.93;;;0.93;;
62880;SDS011;48969;49.934;8.596;2023-07-28T10:08:32;1.10;;;1.00;;
62880;SDS011;48969;49.934;8.596;2023-07-28T10:10:57;0.95;;;0.95;;
62880;SDS011;48969;49.934;8.596;2023-07-28T10:13:23;1.08;;;0.93;;
62880;SDS011;48969;49.934;8.596;2023-07-28T10:15:49;1.10;;;1.00;;
62880;SDS011;48969;49.934;8.596;2023-07-28T10:18:15;0.80;;;0.80;;
62880;SDS011;48969;49.934;8.596;2023-07-28T10:20:42;1.10;;;1.00;;
62880;SDS011;48969;49.934;8.596;2023-07-28T10:23:12;1.73;;;1.05;;
62880;SDS011;48969;49.934;8.596;2023-07-28T10:28:25;2.33;;;0.98;;
62880;SDS011;48969;49.934;8.596;2023-07-28T10:30:56;1.13;;;1.02;;
62880;SDS011;48969;49.934;8.596;2023-07-28T10:33:38;1.25;;;1.00;;
62880;SDS011;48969;49.934;8.596;2023-07-28T10:41:34;2.30;;;1.08;;
62880;SDS011;48969;49.934;8.596;2023-07-28T10:44:00;0.95;;;0.90;;
62880;SDS011;48969;49.934;8.596;2023-07-28T10:46:26;1.80;;;1.10;;
62880;SDS011;48969;49.934;8.596;2023-07-28T10:48:51;2.40;;;1.40;;
62880;SDS011;48969;49.934;8.596;2023-07-28T10:51:24;1.77;;;1.67;;
62880;SDS011;48969;49.934;8.596;2023-07-28T10:53:56;2.55;;;2.15;;
62880;SDS011;48969;49.934;8.596;2023-07-28T10:56:25;3.63;;;2.60;;
62880;SDS011;48969;49.934;8.596;2023-07-28T10:58:58;5.20;;;3.00;;
62880;SDS011;48969;49.934;8.596;2023-07-28T11:01:33;3.95;;;2.88;;
62880;SDS011;48969;49.934;8.596;2023-07-28T11:04:09;4.07;;;3.28;;
62880;SDS011;48969;49.934;8.596;2023-07-28T11:06:35;2.90;;;2.47;;
62880;SDS011;48969;49.934;8.596;2023-07-28T11:09:04;3.58;;;2.78;;
62880;SDS011;48969;49.934;8.596;2023-07-28T11:11:31;3.17;;;2.88;;
62880;SDS011;48969;49.934;8.596;2023-07-28T11:13:56;3.58;;;3.00;;
62880;SDS011;48969;49.934;8.596;2023-07-28T11:16:21;3.35;;;3.03;;
62880;SDS011;48969;49.934;8.596;2023-07-28T11:18:47;5.07;;;3.60;;
62880;SDS011;48969;49.934;8.596;2023-07-28T11:21:12;4.03;;;3.15;;
62880;SDS011;48969;49.934;8.596;2023-07-28T11:23:37;4.32;;;3.70;;
62880;SDS011;48969;49.934;8.596;2023-07-28T11:26:04;4.47;;;3.55;;
62880;SDS011;48969;49.934;8.596;2023-07-28T11:28:30;3.63;;;2.85;;
62880;SDS011;48969;49.934;8.596;2023-07-28T11:30:57;3.50;;;3.20;;
62880;SDS011;48969;49.934;8.596;2023-07-28T11:33:22;4.15;;;2.67;;
62880;SDS011;48969;49.934;8.596;2023-07-28T11:35:47;2.58;;;2.38;;
62880;SDS011;48969;49.934;8.596;2023-07-28T11:38:13;2.30;;;2.10;;
62880;SDS011;48969;49.934;8.596;2023-07-28T11:40:39;2.97;;;2.45;;
62880;SDS011;48969;49.934;8.596;2023-07-28T11:43:06;4.25;;;2.60;;
62880;SDS011;48969;49.934;8.596;2023-07-28T11:45:32;2.50;;;2.10;;
62880;SDS011;48969;49.934;8.596;2023-07-28T11:48:02;2.40;;;2.20;;
62880;SDS011;48969;49.934;8.596;2023-07-28T11:50:31;2.90;;;2.45;;
62880;SDS011;48969;49.934;8.596;2023-07-28T11:53:00;2.15;;;1.85;;
62880;SDS011;48969;49.934;8.596;2023-07-28T11:55:26;2.47;;;2.28;;
62880;SDS011;48969;49.934;8.596;2023-07-28T11:57:52;2.97;;;2.13;;
62880;SDS011;48969;49.934;8.596;2023-07-28T12:00:18;2.58;;;2.00;;
62880;SDS011;48969;49.934;8.596;2023-07-28T12:02:51;2.42;;;2.22;;
62880;SDS011;48969;49.934;8.596;2023-07-28T12:05:25;2.30;;;2.10;;
62880;SDS011;48969;49.934;8.596;2023-07-28T12:07:50;2.47;;;2.00;;
62880;SDS011;48969;49.934;8.596;2023-07-28T12:10:16;2.20;;;2.05;;
62880;SDS011;48969;49.934;8.596;2023-07-28T12:12:44;2.45;;;2.25;;
62880;SDS011;48969;49.934;8.596;2023-07-28T12:20:34;2.20;;;2.00;;
62880;SDS011;48969;49.934;8.596;2023-07-28T12:23:00;2.42;;;2.20;;
62880;SDS011;48969;49.934;8.596;2023-07-28T12:25:26;2.22;;;2.03;;
62880;SDS011;48969;49.934;8.596;2023-07-28T12:27:51;1.90;;;1.70;;
62880;SDS011;48969;49.934;8.596;2023-07-28T12:30:17;2.95;;;1.70;;
62880;SDS011;48969;49.934;8.596;2023-07-28T12:32:42;2.00;;;1.80;;
62880;SDS011;48969;49.934;8.596;2023-07-28T12:35:08;2.17;;;1.92;;
62880;SDS011;48969;49.934;8.596;2023-07-28T12:37:33;2.92;;;1.90;;
62880;SDS011;48969;49.934;8.596;2023-07-28T12:39:59;2.00;;;1.80;;
62880;SDS011;48969;49.934;8.596;2023-07-28T12:42:26;3.35;;;1.45;;
62880;SDS011;48969;49.934;8.596;2023-07-28T12:44:51;3.40;;;1.90;;
62880;SDS011;48969;49.934;8.596;2023-07-28T12:47:17;2.10;;;1.60;;
62880;SDS011;48969;49.934;8.596;2023-07-28T12:49:42;1.90;;;1.77;;
62880;SDS011;48969;49.934;8.596;2023-07-28T12:52:07;1.60;;;1.50;;
62880;SDS011;48969;49.934;8.596;2023-07-28T12:54:34;1.80;;;1.70;;
62880;SDS011;48969;49.934;8.596;2023-07-28T12:57:00;1.60;;;1.48;;
62880;SDS011;48969;49.934;8.596;2023-07-28T12:59:26;1.48;;;1.38;;
62880;SDS011;48969;49.934;8.596;2023-07-28T13:01:52;1.67;;;1.50;;
62880;SDS011;48969;49.934;8.596;2023-07-28T13:04:17;1.77;;;1.48;;
62880;SDS011;48969;49.934;8.596;2023-07-28T13:06:42;1.85;;;1.60;;
62880;SDS011;48969;49.934;8.596;2023-07-28T13:09:09;1.77;;;1.67;;
62880;SDS011;48969;49.934;8.596;2023-07-28T13:11:34;1.73;;;1.63;;
62880;SDS011;48969;49.934;8.596;2023-07-28T13:14:00;2.00;;;1.80;;
62880;SDS011;48969;49.934;8.596;2023-07-28T13:16:25;2.70;;;2.08;;
62880;SDS011;48969;49.934;8.596;2023-07-28T13:18:50;2.63;;;1.92;;
62880;SDS011;48969;49.934;8.596;2023-07-28T13:21:18;1.77;;;1.67;;
62880;SDS011;48969;49.934;8.596;2023-07-28T13:23:43;2.13;;;1.70;;
62880;SDS011;48969;49.934;8.596;2023-07-28T13:26:08;1.40;;;1.30;;
62880;SDS011;48969;49.934;8.596;2023-07-28T13:28:33;1.60;;;1.50;;
62880;SDS011;48969;49.934;8.596;2023-07-28T13:31:02;3.00;;;1.63;;
62880;SDS011;48969;49.934;8.596;2023-07-28T13:33:28;1.67;;;1.33;;
62880;SDS011;48969;49.934;8.596;2023-07-28T13:35:53;1.77;;;1.50;;
62880;SDS011;48969;49.934;8.596;2023-07-28T13:38:18;1.77;;;1.67;;
62880;SDS011;48969;49.934;8.596;2023-07-28T13:40:44;2.00;;;1.80;;
62880;SDS011;48969;49.934;8.596;2023-07-28T13:43:09;2.35;;;1.73;;
62880;SDS011;48969;49.934;8.596;2023-07-28T13:45:35;1.55;;;1.45;;
62880;SDS011;48969;49.934;8.596;2023-07-28T13:48:00;1.60;;;1.50;;
62880;SDS011;48969;49.934;8.596;2023-07-28T13:50:25;1.77;;;1.58;;
62880;SDS011;48969;49.934;8.596;2023-07-28T13:52:51;2.15;;;2.00;;
62880;SDS011;48969;49.934;8.596;2023-07-28T13:55:16;2.47;;;1.70;;
62880;SDS011;48969;49.934;8.596;2023-07-28T13:57:41;1.70;;;1.60;;
62880;SDS011;48969;49.934;8.596;2023-07-28T14:00:07;2.28;;;1.75;;
62880;SDS011;48969;49.934;8.596;2023-07-28T14:02:37;2.08;;;1.83;;
62880;SDS011;48969;49.934;8.596;2023-07-28T14:05:03;1.80;;;1.70;;
62880;SDS011;48969;49.934;8.596;2023-07-28T14:07:29;5.18;;;2.17;;
62880;SDS011;48969;49.934;8.596;2023-07-28T14:09:54;3.15;;;1.92;;
62880;SDS011;48969;49.934;8.596;2023-07-28T14:12:20;2.42;;;2.08;;
62880;SDS011;48969;49.934;8.596;2023-07-28T14:14:45;2.03;;;1.83;;
62880;SDS011;48969;49.934;8.596;2023-07-28T14:17:10;3.05;;;2.00;;
62880;SDS011;48969;49.934;8.596;2023-07-28T14:19:39;3.20;;;2.10;;
62880;SDS011;48969;49.934;8.596;2023-07-28T14:22:05;2.15;;;1.98;;
62880;SDS011;48969;49.934;8.596;2023-07-28T14:24:30;2.20;;;2.00;;
62880;SDS011;48969;49.934;8.596;2023-07-28T14:26:55;3.67;;;2.13;;
62880;SDS011;48969;49.934;8.596;2023-07-28T14:29:21;1.90;;;1.70;;
62880;SDS011;48969;49.934;8.596;2023-07-28T14:31:47;2.88;;;2.25;;
62880;SDS011;48969;49.934;8.596;2023-07-28T14:34:12;2.28;;;2.03;;
62880;SDS011;48969;49.934;8.596;2023-07-28T14:36:38;1.80;;;1.70;;
62880;SDS011;48969;49.934;8.596;2023-07-28T14:39:03;2.08;;;1.92;;
62880;SDS011;48969;49.934;8.596;2023-07-28T14:41:28;2.15;;;1.95;;
62880;SDS011;48969;49.934;8.596;2023-07-28T14:43:54;2.40;;;2.20;;
62880;SDS011;48969;49.934;8.596;2023-07-28T14:46:19;2.00;;;1.77;;
62880;SDS011;48969;49.934;8.596;2023-07-28T14:48:47;2.47;;;2.10;;
62880;SDS011;48969;49.934;8.596;2023-07-28T14:51:12;1.50;;;1.40;;
62880;SDS011;48969;49.934;8.596;2023-07-28T14:53:38;2.17;;;1.58;;
62880;SDS011;48969;49.934;8.596;2023-07-28T14:56:05;2.25;;;1.42;;
62880;SDS011;48969;49.934;8.596;2023-07-28T14:58:31;1.15;;;1.15;;